Delta Junction, AK

1:35 AM AKDT on September 02, 2014 (GMT -0800)
Allen Army Air Field | Change Station
CLOSE
Current Station
Airport
Location: Big Delta,
Elevation: 1306 ft
Nearby Weather Stations

Elev 1306 ft 63.99 °N, 145.72 °W | Updated 42 minutes ago

Light Rain
Light Rain
44 °F
Feels Like 40 °F
N
7
Wind Variable Wind from ESE

Today
High -- | Low -- °F
--% Chance of Precip.
Yesterday
High -- | Low -- °F
Precip. -- in
6:29 AM 8:53 PM
Waxing Crescent, 49% visible
Pressure 29.74 in
Visibility 10.0 miles
Clouds Overcast 5000 ft
Windchill 40 °F
Dew Point 40 °F
Humidity 85%
Rainfall 0.02 in
Snow Depth Not available.
UV 0 out of 12
Pollen Not available.
Air Quality Not available.
Flu Activity Not available.
METAR PABI 020853Z AUTO 11006KT 10SM -RA OVC050 07/04 A2971 RMK AO2 SLP070 P0002 60005 T00670044 401111017 55002 TSNO

More Conditions Fewer Conditions

Pressure 29.74 in
Visibility 10.0 miles
Clouds Overcast 5000 ft
Windchill 40 °F
Dew Point 40 °F
Humidity 85%
Rainfall 0.02 in
Snow Depth Not available.
UV 0 out of 12
Pollen Not available.
Air Quality Not available.
Flu Activity Not available.
METAR PABI 020853Z AUTO 11006KT 10SM -RA OVC050 07/04 A2971 RMK AO2 SLP070 P0002 60005 T00670044 401111017 55002 TSNO

More Conditions Fewer Conditions

10-Day Weather Forecast

Almanac

Astronomy

Sep. 02, 2014 Rise Set
Actual Time 6:29 AM AKDT 8:53 PM AKDT
Civil Twilight 5:36 AM AKDT 9:45 PM AKDT
Nautical Twilight 4:24 AM AKDT 10:56 PM AKDT
Astronomical Twilight 2:06 AM AKDT 12:58 AM AKDT
Moon 4:58 PM AKDT 11:20 PM AKDT
Length of Visible Light 16h 09m
Length of Day
14h 24m
Tomorrow will be 6m 26s shorter.
Waxing Crescent, 49% of the Moon is Illuminated
Today
Waxing Crescent
Sep 2
First Quarter
Sep 8
Full
Sep 15
Last Quarter
Sep 24
New

Today's Extremes

State Highs State Lows

Community

WunderPhotos

Upload Photos

1,749,587 photos uploaded!

WunderBlogs® & News

Nearby

Snow Depth

Station Depth Elevation
Granite Creek 0 in 1240 ft
Munson Ridge 1 in 3100 ft
Monument Creek 0 in 1850 ft
Upper Chena 1 in 2850 ft
Little Chena Ridge 1 in 2000 ft

Earthquake Activity

City Distance Mag. Time & Date
No recent earthquake activity has been reported nearby.
Minimum magnitude displayed is 2.5.

Coastal Water Temperatures

Place Temperature
No Stations Reporting

Nearby Weather Stations